Time;durP1;ratioP1;P1;durP2;ratioP2;P2;SDS_P1;SDS_P2;PMS_P1;PMS_P2;Temp;Humidity;BMP_temperature;BMP_pressure;BME280_temperature;BME280_humidity;BME280_pressure;Samples;Min_cycle;Max_cycle;Signal;HPM_P1;HPM_P2
2021/12/17 00:02:28;;;;;;;16.95;4.22;;;7.60;99.90;;;;;;4863537;29;20052;-84
2021/12/17 00:07:14;;;;;;;15.95;3.15;;;7.50;99.90;;;;;;4863197;29;20584;-84
2021/12/17 00:09:42;;;;;;;16.48;3.97;;;7.50;99.90;;;;;;4863281;29;20450;-84
2021/12/17 00:12:11;;;;;;;17.58;3.88;;;7.50;99.90;;;;;;4863550;29;20053;-84
2021/12/17 00:14:39;;;;;;;24.85;3.53;;;7.60;99.90;;;;;;4879947;29;20045;-84
2021/12/17 00:17:11;;;;;;;17.52;3.47;;;7.50;99.90;;;;;;4863404;29;20144;-84
2021/12/17 00:49:38;;;;;;;9.35;2.50;;;7.50;99.90;;;;;;4834928;29;20060;-83
2021/12/17 00:52:04;;;;;;;8.85;2.08;;;7.50;99.90;;;;;;4862783;29;20057;-83
2021/12/17 00:54:34;;;;;;;6.97;1.95;;;7.50;99.90;;;;;;4862738;29;20056;-83
2021/12/17 00:57:14;;;;;;;4.90;1.55;;;7.50;99.90;;;;;;4863525;29;20061;-83
2021/12/17 00:59:50;;;;;;;6.45;1.70;;;7.50;99.90;;;;;;4863159;29;20045;-83
2021/12/17 01:02:19;;;;;;;15.43;3.40;;;7.40;99.90;;;;;;4866339;29;20103;-83
2021/12/17 01:04:49;;;;;;;6.88;2.20;;;7.40;99.90;;;;;;4866018;29;20053;-83
2021/12/17 01:07:16;;;;;;;6.05;1.77;;;7.40;99.90;;;;;;4863028;29;20061;-83
2021/12/17 01:09:42;;;;;;;6.22;1.88;;;7.40;99.90;;;;;;4863428;29;20054;-83
2021/12/17 01:12:09;;;;;;;6.90;2.10;;;7.40;99.90;;;;;;4862902;29;20064;-83
2021/12/17 01:14:35;;;;;;;6.15;2.30;;;7.40;99.90;;;;;;4863077;29;20049;-83
2021/12/17 01:17:01;;;;;;;5.43;1.88;;;7.40;99.90;;;;;;4862880;29;20087;-83
2021/12/17 01:22:41;;;;;;;9.00;2.10;;;7.40;99.90;;;;;;4864174;29;20084;-84
2021/12/17 01:25:18;;;;;;;13.60;2.40;;;7.40;99.90;;;;;;4862766;29;20054;-84
2021/12/17 01:35:56;;;;;;;8.98;1.77;;;7.40;99.90;;;;;;4862586;29;20069;-84
2021/12/17 01:44:15;;;;;;;10.38;1.92;;;7.40;99.90;;;;;;4791769;29;20063;-84
2021/12/17 01:46:42;;;;;;;6.70;1.90;;;7.40;99.90;;;;;;4791706;29;20191;-84
2021/12/17 02:00:04;;;;;;;9.70;2.05;;;7.40;99.90;;;;;;4862624;29;20065;-83
2021/12/17 02:02:33;;;;;;;36.97;3.17;;;7.40;99.90;;;;;;4862231;29;20049;-84
2021/12/17 02:04:58;;;;;;;38.17;3.63;;;7.40;99.90;;;;;;4862281;29;20050;-84
2021/12/17 02:07:25;;;;;;;37.05;4.32;;;7.30;99.90;;;;;;4861988;29;20061;-84
2021/12/17 02:31:33;;;;;;;54.53;9.05;;;7.40;99.90;;;;;;4861755;29;20056;-84
2021/12/17 02:34:04;;;;;;;64.43;10.82;;;7.40;99.90;;;;;;4861512;29;20383;-84
2021/12/17 02:36:33;;;;;;;94.25;11.88;;;7.40;99.90;;;;;;4861870;29;20049;-85
2021/12/17 02:47:13;;;;;;;68.05;13.00;;;7.40;99.90;;;;;;4861296;29;20414;-83
2021/12/17 02:49:43;;;;;;;69.55;13.50;;;7.40;99.90;;;;;;4861521;29;20049;-84
2021/12/17 02:52:09;;;;;;;52.92;10.85;;;7.40;99.90;;;;;;4861554;29;20508;-85
2021/12/17 02:54:36;;;;;;;67.78;12.45;;;7.40;99.90;;;;;;4861274;29;20097;-85
2021/12/17 02:57:03;;;;;;;65.63;12.98;;;7.40;99.90;;;;;;4861138;29;20053;-85
2021/12/17 02:59:32;;;;;;;54.58;10.45;;;7.40;99.90;;;;;;4861092;29;20053;-83
2021/12/17 03:01:58;;;;;;;54.60;11.80;;;7.40;99.90;;;;;;4861247;29;20066;-84
2021/12/17 03:04:27;;;;;;;81.43;13.45;;;7.50;99.90;;;;;;4861443;29;20064;-84
2021/12/17 03:06:54;;;;;;;63.28;12.75;;;7.50;99.90;;;;;;4860692;29;20053;-83
2021/12/17 03:09:29;;;;;;;64.32;12.25;;;7.50;99.90;;;;;;4860897;29;20049;-83
2021/12/17 03:11:54;;;;;;;71.50;12.75;;;7.40;99.90;;;;;;4861263;29;20049;-83
2021/12/17 03:14:20;;;;;;;63.35;11.35;;;7.50;99.90;;;;;;4860952;29;20139;-83
2021/12/17 03:16:58;;;;;;;76.70;12.95;;;7.50;99.90;;;;;;4861211;29;20052;-83
2021/12/17 03:23:26;;;;;;;56.00;11.63;;;7.40;99.90;;;;;;4860882;29;20454;-83
2021/12/17 03:24:54;;;;;;;51.47;11.00;;;7.40;99.90;;;;;;4860735;29;20137;-83
2021/12/17 03:27:19;;;;;;;49.55;10.80;;;7.50;99.90;;;;;;4861008;29;20132;-83
2021/12/17 03:29:45;;;;;;;58.78;11.20;;;7.50;99.90;;;;;;4860742;29;20401;-83
2021/12/17 03:32:10;;;;;;;49.65;9.93;;;7.50;99.90;;;;;;4860510;29;20059;-83
2021/12/17 03:34:36;;;;;;;50.05;10.80;;;7.50;99.90;;;;;;4860502;29;20041;-83
2021/12/17 03:37:02;;;;;;;54.08;11.18;;;7.40;99.90;;;;;;4860571;29;20053;-83
2021/12/17 03:39:30;;;;;;;49.10;9.25;;;7.40;99.90;;;;;;4860832;29;20049;-83
2021/12/17 03:41:57;;;;;;;49.95;9.60;;;7.50;99.90;;;;;;4860678;29;20081;-83
2021/12/17 03:44:23;;;;;;;46.25;9.00;;;7.40;99.90;;;;;;4860500;29;20057;-82
2021/12/17 03:46:50;;;;;;;44.75;8.75;;;7.40;99.90;;;;;;4860558;29;20042;-83
2021/12/17 03:49:17;;;;;;;40.92;9.68;;;7.40;99.90;;;;;;4860375;29;20050;-83
2021/12/17 03:54:27;;;;;;;36.70;7.93;;;7.40;99.90;;;;;;4861634;29;20101;-83
2021/12/17 03:56:54;;;;;;;38.38;8.63;;;7.40;99.90;;;;;;4860627;29;20045;-83
2021/12/17 03:59:20;;;;;;;40.13;9.45;;;7.40;99.90;;;;;;4860410;29;20049;-83
2021/12/17 04:01:46;;;;;;;44.58;8.27;;;7.40;99.90;;;;;;4861244;29;20406;-83
2021/12/17 04:04:11;;;;;;;38.72;8.05;;;7.40;99.90;;;;;;4860141;29;20124;-83
2021/12/17 04:06:39;;;;;;;34.15;7.22;;;7.40;99.90;;;;;;4860012;29;20084;-83
2021/12/17 04:09:05;;;;;;;32.97;8.35;;;7.40;99.90;;;;;;4860236;29;20541;-83
2021/12/17 04:11:31;;;;;;;30.52;7.28;;;7.40;99.90;;;;;;4860429;29;20125;-83
2021/12/17 04:13:58;;;;;;;39.92;8.27;;;7.40;99.90;;;;;;4860271;29;20057;-82
2021/12/17 04:16:28;;;;;;;36.10;7.65;;;7.40;99.90;;;;;;4860017;29;20089;-82
2021/12/17 04:18:55;;;;;;;32.38;7.75;;;7.40;99.90;;;;;;4861294;29;20061;-82
2021/12/17 04:21:20;;;;;;;31.67;7.55;;;7.40;99.90;;;;;;4860249;29;20525;-82
2021/12/17 04:23:48;;;;;;;34.13;7.97;;;7.40;99.90;;;;;;4860056;29;20141;-83
2021/12/17 04:26:15;;;;;;;42.03;9.77;;;7.40;99.90;;;;;;4860306;29;20109;-83
2021/12/17 04:28:45;;;;;;;42.88;9.25;;;7.40;99.90;;;;;;4860141;29;20105;-83
2021/12/17 04:31:12;;;;;;;41.78;8.50;;;7.40;99.90;;;;;;4859885;29;20417;-83
2021/12/17 04:33:40;;;;;;;34.90;9.07;;;7.40;99.90;;;;;;4860401;29;20053;-82
2021/12/17 04:36:07;;;;;;;39.53;8.13;;;7.40;99.90;;;;;;4865071;29;20513;-83
2021/12/17 04:38:33;;;;;;;46.05;8.18;;;7.40;99.90;;;;;;4865036;29;20045;-83
2021/12/17 04:46:51;;;;;;;52.35;8.10;;;7.40;99.90;;;;;;4863573;29;20101;-83
2021/12/17 04:57:35;;;;;;;40.42;9.57;;;7.40;99.90;;;;;;4865098;29;20079;-83
2021/12/17 05:00:07;;;;;;;42.10;8.15;;;7.40;99.90;;;;;;4863429;29;20520;-83
2021/12/17 05:02:39;;;;;;;34.58;8.10;;;7.40;99.90;;;;;;4863234;29;20052;-83
2021/12/17 05:05:07;;;;;;;36.00;8.70;;;7.40;99.90;;;;;;4863328;29;20405;-83
2021/12/17 05:07:35;;;;;;;34.05;8.05;;;7.40;99.90;;;;;;4863068;29;20438;-83
2021/12/17 05:10:18;;;;;;;38.58;8.15;;;7.40;99.90;;;;;;4863439;29;20062;-82
2021/12/17 05:19:46;;;;;;;33.95;8.13;;;7.40;99.90;;;;;;4793279;29;20415;-83
2021/12/17 05:21:33;;;;;;;31.35;7.82;;;7.40;99.90;;;;;;4843963;29;20089;-82
2021/12/17 05:23:58;;;;;;;31.60;7.50;;;7.40;99.90;;;;;;4863152;29;20089;-82
2021/12/17 05:26:24;;;;;;;38.80;9.07;;;7.40;99.90;;;;;;4862911;29;20053;-82
2021/12/17 05:28:52;;;;;;;44.63;9.23;;;7.40;99.90;;;;;;4862874;29;20050;-82
2021/12/17 05:31:21;;;;;;;31.02;8.15;;;7.40;99.90;;;;;;4862965;29;20154;-83
2021/12/17 05:33:48;;;;;;;37.67;8.68;;;7.40;99.90;;;;;;4862707;29;20578;-82
2021/12/17 05:36:14;;;;;;;43.90;8.55;;;7.40;99.90;;;;;;4862753;29;20046;-82
2021/12/17 05:38:40;;;;;;;36.45;9.32;;;7.40;99.90;;;;;;4862920;29;20409;-82
2021/12/17 05:41:05;;;;;;;37.70;8.38;;;7.40;99.90;;;;;;4862803;29;20041;-82
2021/12/17 05:43:36;;;;;;;35.90;9.13;;;7.40;99.90;;;;;;4862319;29;20540;-82
2021/12/17 05:46:13;;;;;;;34.10;8.77;;;7.40;99.90;;;;;;4861716;29;20124;-82
2021/12/17 05:48:40;;;;;;;29.65;8.13;;;7.50;99.90;;;;;;4862554;29;20058;-82
2021/12/17 05:51:09;;;;;;;35.47;8.07;;;7.40;99.90;;;;;;4862480;29;20078;-83
2021/12/17 05:53:34;;;;;;;35.15;9.05;;;7.50;99.90;;;;;;4862647;29;20113;-83
2021/12/17 05:56:00;;;;;;;30.17;8.45;;;7.50;99.90;;;;;;4862452;29;20448;-83
2021/12/17 05:58:28;;;;;;;31.95;8.52;;;7.50;99.90;;;;;;4862490;29;20053;-83
2021/12/17 06:00:54;;;;;;;34.50;9.52;;;7.40;99.90;;;;;;4862500;29;20072;-83
2021/12/17 06:03:20;;;;;;;34.55;9.30;;;7.50;99.90;;;;;;4862157;29;20084;-83
2021/12/17 06:05:46;;;;;;;41.22;10.00;;;7.50;99.90;;;;;;4864417;29;20091;-83
2021/12/17 06:08:12;;;;;;;38.40;9.43;;;7.50;99.90;;;;;;4865225;29;20378;-83
2021/12/17 06:10:38;;;;;;;28.50;8.35;;;7.50;99.90;;;;;;4865332;29;20499;-83
2021/12/17 06:13:04;;;;;;;30.60;8.98;;;7.50;99.90;;;;;;4865252;29;20068;-83
2021/12/17 06:15:30;;;;;;;41.88;9.05;;;7.50;99.90;;;;;;4881755;29;20494;-83
2021/12/17 06:17:56;;;;;;;38.13;8.85;;;7.50;99.90;;;;;;4864988;29;20056;-83
2021/12/17 06:20:24;;;;;;;34.53;9.52;;;7.50;99.90;;;;;;4865248;29;20063;-83
2021/12/17 06:22:51;;;;;;;43.50;11.18;;;7.50;99.90;;;;;;4864876;29;20104;-83
2021/12/17 06:25:17;;;;;;;37.72;10.30;;;7.50;99.90;;;;;;4865029;29;20049;-82
2021/12/17 06:27:43;;;;;;;39.00;9.55;;;7.50;99.90;;;;;;4865051;29;20064;-82
2021/12/17 06:30:12;;;;;;;43.85;10.60;;;7.50;99.90;;;;;;4864733;29;20045;-82
2021/12/17 06:32:38;;;;;;;35.03;10.52;;;7.50;99.90;;;;;;4865014;29;20041;-82
2021/12/17 06:35:05;;;;;;;45.67;10.63;;;7.50;99.90;;;;;;4864755;29;20132;-82
2021/12/17 06:37:33;;;;;;;38.97;10.82;;;7.50;99.90;;;;;;4864665;29;20112;-82
2021/12/17 06:39:59;;;;;;;39.72;10.68;;;7.60;99.90;;;;;;4864586;29;20064;-82
2021/12/17 06:42:26;;;;;;;42.45;12.73;;;7.50;99.90;;;;;;4864610;29;20049;-82
2021/12/17 06:44:55;;;;;;;48.33;12.00;;;7.50;99.90;;;;;;4864604;29;20417;-82
2021/12/17 06:47:33;;;;;;;35.63;10.30;;;7.50;99.90;;;;;;4864608;29;20045;-82
2021/12/17 06:56:14;;;;;;;43.55;12.02;;;7.60;99.90;;;;;;4864843;29;20049;-82
2021/12/17 06:58:51;;;;;;;42.15;11.80;;;7.60;99.90;;;;;;4881186;29;20049;-82
2021/12/17 07:05:53;;;;;;;51.47;13.63;;;7.50;99.90;;;;;;4864570;29;20143;-82
2021/12/17 07:09:53;;;;;;;50.58;12.98;;;7.70;99.90;;;;;;4864074;29;20049;-82
2021/12/17 07:33:38;;;;;;;51.13;13.48;;;7.90;99.90;;;;;;4863756;29;20073;-82
2021/12/17 07:35:53;;;;;;;54.70;13.00;;;7.90;99.90;;;;;;4856127;29;20493;-82
2021/12/17 07:41:03;;;;;;;51.40;13.73;;;7.90;99.90;;;;;;4863862;29;20049;-82
2021/12/17 07:43:39;;;;;;;59.25;16.63;;;7.90;99.90;;;;;;4863666;29;20053;-83
2021/12/17 07:46:12;;;;;;;52.70;13.73;;;7.90;99.90;;;;;;4863561;29;20061;-83
2021/12/17 07:48:38;;;;;;;53.77;13.43;;;7.90;99.90;;;;;;4863458;29;20401;-83
2021/12/17 07:51:08;;;;;;;50.63;12.13;;;8.00;99.90;;;;;;4863147;29;20467;-83
2021/12/17 07:53:34;;;;;;;54.65;14.50;;;7.90;99.90;;;;;;4863262;29;20140;-83
2021/12/17 07:56:02;;;;;;;48.63;13.82;;;8.00;99.90;;;;;;4862960;29;20061;-83
2021/12/17 07:58:29;;;;;;;56.28;14.57;;;7.90;99.90;;;;;;4862522;29;20067;-83
2021/12/17 08:00:55;;;;;;;59.70;13.95;;;8.00;99.90;;;;;;4861839;29;20504;-83
2021/12/17 08:03:21;;;;;;;54.78;15.60;;;7.90;99.90;;;;;;4861852;29;20064;-83
2021/12/17 08:05:48;;;;;;;49.35;13.43;;;8.00;99.90;;;;;;4863007;29;20056;-83
2021/12/17 08:08:13;;;;;;;57.25;14.57;;;7.90;99.90;;;;;;4863175;29;20164;-83
2021/12/17 08:10:39;;;;;;;57.45;16.08;;;8.00;99.90;;;;;;4879441;29;20502;-83
2021/12/17 08:13:07;;;;;;;60.22;14.13;;;7.90;99.90;;;;;;4863237;29;20096;-83
2021/12/17 08:15:42;;;;;;;54.15;13.43;;;7.90;99.90;;;;;;4863178;29;20489;-83
2021/12/17 08:28:50;;;;;;;36.85;12.25;;;8.00;99.90;;;;;;4844274;29;20089;-82
2021/12/17 08:31:16;;;;;;;32.55;10.45;;;8.00;99.90;;;;;;4844407;29;20053;-82
2021/12/17 08:33:41;;;;;;;39.83;11.80;;;8.00;99.90;;;;;;4844177;29;20474;-81
2021/12/17 08:36:07;;;;;;;32.75;10.68;;;8.10;99.90;;;;;;4844056;29;20521;-82
2021/12/17 08:38:33;;;;;;;34.80;10.68;;;8.00;99.90;;;;;;4844455;29;20144;-82
2021/12/17 08:41:00;;;;;;;30.92;10.20;;;8.10;99.90;;;;;;4844163;29;20058;-82
2021/12/17 08:43:26;;;;;;;30.88;10.98;;;8.10;99.90;;;;;;4844184;29;20045;-81
2021/12/17 08:45:52;;;;;;;30.92;10.55;;;8.10;99.90;;;;;;4860669;29;20077;-81
2021/12/17 08:48:18;;;;;;;25.77;9.05;;;8.10;99.90;;;;;;4844435;29;20483;-82
2021/12/17 08:50:43;;;;;;;23.70;8.38;;;8.20;99.90;;;;;;4844178;29;20181;-81
2021/12/17 08:53:09;;;;;;;23.92;9.40;;;8.20;99.90;;;;;;4844067;29;20086;-82
2021/12/17 08:55:35;;;;;;;26.10;8.95;;;8.20;99.90;;;;;;4844099;29;20045;-81
2021/12/17 08:58:01;;;;;;;23.77;8.40;;;8.20;99.90;;;;;;4844037;29;20174;-81
2021/12/17 09:00:27;;;;;;;25.02;8.82;;;8.30;99.90;;;;;;4843982;29;20117;-82
2021/12/17 09:02:58;;;;;;;20.20;8.07;;;8.20;99.90;;;;;;4844006;29;20053;-81
2021/12/17 09:05:24;;;;;;;18.05;8.32;;;8.30;99.90;;;;;;4843949;29;20065;-82
2021/12/17 09:07:49;;;;;;;19.02;7.75;;;8.30;99.90;;;;;;4843847;29;20065;-81
2021/12/17 09:10:20;;;;;;;18.13;6.82;;;8.30;99.90;;;;;;4843989;29;20057;-82
2021/12/17 09:12:46;;;;;;;17.58;7.30;;;8.30;99.90;;;;;;4843974;29;20057;-81
2021/12/17 09:15:12;;;;;;;15.93;7.50;;;8.30;99.90;;;;;;4844120;29;20045;-82
2021/12/17 09:17:38;;;;;;;15.68;7.22;;;8.30;99.90;;;;;;4844036;29;20466;-82
2021/12/17 09:20:06;;;;;;;12.93;6.60;;;8.30;99.90;;;;;;4843829;29;20136;-82
2021/12/17 09:22:33;;;;;;;20.15;7.18;;;8.30;99.90;;;;;;4863363;29;20284;-82
2021/12/17 09:24:58;;;;;;;18.48;7.95;;;8.30;99.90;;;;;;4863959;29;20050;-82
2021/12/17 09:27:24;;;;;;;15.73;7.18;;;8.30;99.90;;;;;;4863736;29;20038;-83
2021/12/17 09:29:50;;;;;;;20.15;7.82;;;8.30;99.90;;;;;;4847148;29;20105;-83
2021/12/17 09:32:16;;;;;;;15.35;7.68;;;8.30;99.90;;;;;;4846914;29;20049;-81
2021/12/17 09:34:41;;;;;;;17.40;8.15;;;8.30;99.90;;;;;;4847016;29;20088;-81
2021/12/17 09:37:07;;;;;;;16.83;8.25;;;8.30;99.90;;;;;;4847137;29;20497;-81
2021/12/17 09:39:33;;;;;;;18.33;7.35;;;8.40;99.90;;;;;;4847147;29;20081;-81
2021/12/17 09:41:59;;;;;;;18.15;7.95;;;8.30;99.90;;;;;;4863098;29;20104;-81
2021/12/17 09:44:25;;;;;;;16.40;7.53;;;8.40;99.90;;;;;;4846842;29;20053;-83
2021/12/17 09:46:57;;;;;;;15.27;7.60;;;8.40;99.90;;;;;;4846611;29;20051;-82
2021/12/17 09:49:23;;;;;;;20.95;8.73;;;8.40;99.90;;;;;;4846736;29;20057;-83
2021/12/17 09:51:49;;;;;;;17.65;7.80;;;8.40;99.90;;;;;;4846558;29;20478;-83
2021/12/17 09:54:15;;;;;;;16.98;7.25;;;8.40;99.90;;;;;;4846595;29;20516;-83
2021/12/17 09:56:41;;;;;;;16.08;6.68;;;8.40;99.90;;;;;;4846591;29;20082;-83
2021/12/17 09:59:08;;;;;;;11.38;6.25;;;8.50;99.90;;;;;;4846794;29;20041;-83
2021/12/17 10:01:42;;;;;;;14.60;7.10;;;8.50;99.90;;;;;;4846377;29;20068;-86
2021/12/17 10:04:20;;;;;;;12.90;6.80;;;8.50;99.90;;;;;;4846730;29;20138;-81
2021/12/17 10:06:48;;;;;;;12.63;5.90;;;8.50;99.90;;;;;;4846407;29;20136;-82
2021/12/17 10:09:15;;;;;;;11.73;6.20;;;8.60;99.90;;;;;;4846220;29;20053;-83
2021/12/17 10:12:01;;;;;;;10.82;5.95;;;8.60;99.90;;;;;;4846493;29;20060;-82
2021/12/17 10:14:27;;;;;;;16.98;6.18;;;8.60;99.90;;;;;;4846375;29;20096;-82
2021/12/17 10:17:12;;;;;;;12.23;5.57;;;8.60;99.90;;;;;;4846287;29;20069;-84
2021/12/17 10:19:56;;;;;;;15.15;7.00;;;8.60;99.90;;;;;;4863110;29;20051;-83
2021/12/17 10:22:23;;;;;;;13.38;6.00;;;8.60;99.90;;;;;;4846157;29;20074;-83
2021/12/17 10:25:07;;;;;;;15.20;6.22;;;8.60;99.90;;;;;;4846339;29;20486;-83
2021/12/17 10:27:42;;;;;;;13.02;5.75;;;8.60;99.90;;;;;;4830845;29;20140;-83
2021/12/17 10:30:10;;;;;;;14.70;6.13;;;8.60;99.90;;;;;;4846316;29;20060;-82
2021/12/17 10:32:36;;;;;;;16.70;6.50;;;8.60;99.90;;;;;;4845563;29;20053;-83
2021/12/17 10:35:11;;;;;;;12.02;5.43;;;8.60;99.90;;;;;;4862380;29;20072;-83
2021/12/17 10:37:43;;;;;;;13.02;5.85;;;8.60;99.90;;;;;;4846177;29;20079;-81
2021/12/17 10:40:47;;;;;;;12.95;5.68;;;8.60;99.90;;;;;;4845819;29;20116;-82
2021/12/17 10:43:28;;;;;;;14.40;6.05;;;8.70;99.90;;;;;;4845694;29;20069;-81
2021/12/17 10:46:12;;;;;;;13.23;6.70;;;8.60;99.90;;;;;;4862310;29;20108;-82
2021/12/17 10:51:15;;;;;;;12.63;6.13;;;8.60;99.90;;;;;;4848374;29;20062;-82
2021/12/17 10:54:05;;;;;;;14.13;6.40;;;8.60;99.90;;;;;;4855753;29;20455;-85
2021/12/17 10:56:33;;;;;;;14.43;6.65;;;8.70;99.90;;;;;;4843138;29;20071;-82
2021/12/17 10:59:12;;;;;;;13.23;6.47;;;8.70;99.90;;;;;;4862135;29;20045;-82
2021/12/17 11:01:41;;;;;;;13.20;6.18;;;8.60;99.90;;;;;;4845594;29;20053;-82
2021/12/17 11:04:14;;;;;;;12.38;5.93;;;8.60;99.90;;;;;;4845348;29;20049;-82
2021/12/17 11:06:48;;;;;;;;;;;8.70;99.90;;;;;;4845612;29;20069;-82
2021/12/17 11:09:36;;;;;;;10.88;5.13;;;8.70;99.90;;;;;;4845572;29;20395;-82
2021/12/17 11:12:17;;;;;;;11.23;4.15;;;8.70;99.90;;;;;;4845203;29;20045;-82
2021/12/17 11:14:44;;;;;;;12.43;4.28;;;8.70;99.90;;;;;;4845200;29;20057;-82
2021/12/17 11:17:12;;;;;;;7.43;3.95;;;8.80;99.90;;;;;;4845152;29;20128;-82
2021/12/17 11:19:41;;;;;;;6.85;3.50;;;8.80;99.90;;;;;;4845182;29;20110;-82
2021/12/17 11:22:07;;;;;;;10.52;3.75;;;8.80;99.90;;;;;;4859167;29;20052;-82
2021/12/17 11:24:35;;;;;;;9.55;4.45;;;8.80;99.90;;;;;;4880183;29;20061;-82
2021/12/17 11:27:05;;;;;;;9.07;4.25;;;8.80;99.90;;;;;;4863324;29;20051;-82
2021/12/17 11:29:31;;;;;;;10.95;4.57;;;8.80;99.90;;;;;;4863710;29;20057;-82
2021/12/17 11:31:59;;;;;;;11.50;5.00;;;8.80;99.90;;;;;;4854714;29;20071;-82
2021/12/17 11:34:26;;;;;;;8.82;4.90;;;8.80;99.90;;;;;;4845173;29;20129;-82
2021/12/17 11:36:53;;;;;;;12.18;4.97;;;8.80;99.90;;;;;;4845052;29;20054;-82
2021/12/17 11:39:26;;;;;;;10.88;4.50;;;8.80;99.90;;;;;;4845028;29;20047;-82
2021/12/17 11:41:58;;;;;;;8.95;3.92;;;8.90;99.90;;;;;;4844978;29;20057;-82
2021/12/17 11:44:38;;;;;;;10.57;4.03;;;8.90;99.90;;;;;;4844299;29;20486;-82
2021/12/17 11:47:07;;;;;;;8.93;4.18;;;8.90;99.90;;;;;;4845004;29;20049;-82
2021/12/17 11:49:48;;;;;;;7.45;4.07;;;8.90;99.90;;;;;;4844635;29;20515;-82
2021/12/17 11:52:14;;;;;;;9.07;4.00;;;8.80;99.90;;;;;;4853437;29;20394;-82
2021/12/17 11:54:40;;;;;;;7.28;3.78;;;8.80;99.90;;;;;;4861492;29;20049;-82
2021/12/17 11:57:17;;;;;;;7.07;3.47;;;8.90;99.90;;;;;;4844763;29;20447;-82
2021/12/17 11:59:45;;;;;;;6.05;3.45;;;8.90;99.90;;;;;;4861473;29;20134;-82
2021/12/17 12:02:22;;;;;;;9.75;3.42;;;9.00;99.90;;;;;;4852598;29;20092;-82
2021/12/17 12:05:04;;;;;;;8.85;3.80;;;9.00;99.90;;;;;;4844569;29;20054;-82
2021/12/17 12:07:29;;;;;;;9.15;4.05;;;9.00;99.90;;;;;;4844399;29;20578;-82
2021/12/17 12:10:04;;;;;;;7.45;4.28;;;9.00;99.90;;;;;;4844690;29;20050;-82
2021/12/17 12:12:45;;;;;;;8.40;4.03;;;9.00;99.90;;;;;;4844686;29;20053;-82
2021/12/17 12:15:21;;;;;;;7.78;4.32;;;9.00;99.90;;;;;;4860861;29;20462;-82
2021/12/17 12:18:06;;;;;;;10.75;4.32;;;9.00;99.90;;;;;;4844279;29;20104;-82
2021/12/17 12:20:50;;;;;;;8.63;4.13;;;9.00;99.90;;;;;;4845114;29;20057;-81
2021/12/17 12:23:18;;;;;;;8.27;4.18;;;8.90;99.90;;;;;;4844308;29;20140;-81
2021/12/17 12:26:07;;;;;;;11.50;5.97;;;8.90;99.90;;;;;;4844336;29;20179;-81
2021/12/17 12:28:48;;;;;;;13.38;5.32;;;8.90;99.90;;;;;;4825815;29;20057;-87
2021/12/17 12:31:17;;;;;;;13.18;5.22;;;8.90;99.90;;;;;;4856601;29;20511;-80
2021/12/17 12:34:13;;;;;;;10.05;4.75;;;8.90;99.90;;;;;;4844998;29;20046;-84
2021/12/17 12:36:47;;;;;;;12.23;4.78;;;8.90;99.90;;;;;;4837758;29;20096;-82
2021/12/17 12:39:17;;;;;;;9.25;4.95;;;8.90;99.90;;;;;;4878188;29;20045;-83
2021/12/17 12:41:54;;;;;;;9.88;4.78;;;8.90;99.90;;;;;;4868170;29;20101;-82
2021/12/17 12:44:20;;;;;;;10.68;4.63;;;8.90;99.90;;;;;;4870860;29;20414;-83
2021/12/17 12:46:50;;;;;;;12.25;4.97;;;8.90;99.90;;;;;;4860721;29;20041;-83
2021/12/17 12:49:56;;;;;;;10.38;4.55;;;8.90;99.90;;;;;;4844028;29;20375;-83
2021/12/17 12:52:34;;;;;;;8.23;4.43;;;8.90;99.90;;;;;;4844332;29;20068;-83
2021/12/17 12:54:59;;;;;;;10.00;4.60;;;8.90;99.90;;;;;;4844708;29;20058;-83
2021/12/17 12:57:28;;;;;;;16.55;4.78;;;9.00;99.90;;;;;;4847958;29;20046;-83
2021/12/17 12:59:56;;;;;;;12.60;4.68;;;8.90;99.90;;;;;;4848006;29;20059;-83
2021/12/17 13:02:25;;;;;;;12.20;4.45;;;8.90;99.90;;;;;;4847477;29;20045;-82
2021/12/17 13:04:57;;;;;;;11.30;4.20;;;8.90;99.90;;;;;;4847697;29;20057;-82
2021/12/17 13:07:41;;;;;;;13.48;4.05;;;9.00;99.90;;;;;;4863982;29;20153;-82
2021/12/17 13:10:10;;;;;;;12.60;4.55;;;9.00;99.90;;;;;;4847444;29;20065;-82
2021/12/17 13:12:39;;;;;;;10.35;3.90;;;8.90;99.90;;;;;;4850233;29;20603;-83
2021/12/17 13:23:38;;;;;;;9.10;3.53;;;9.00;99.90;;;;;;4861698;29;20061;-83
2021/12/17 13:26:08;;;;;;;12.20;3.75;;;8.90;99.90;;;;;;4864935;29;20049;-83
2021/12/17 13:28:50;;;;;;;11.25;4.30;;;9.00;99.90;;;;;;4865873;29;20056;-82
2021/12/17 13:31:44;;;;;;;8.70;3.30;;;9.00;99.90;;;;;;4881732;29;20053;-83
2021/12/17 13:34:33;;;;;;;12.75;4.03;;;9.00;99.90;;;;;;4865559;29;20489;-85
2021/12/17 13:36:59;;;;;;;9.68;4.00;;;8.90;99.90;;;;;;4865486;29;20493;-83
2021/12/17 13:39:29;;;;;;;12.93;3.50;;;8.90;99.90;;;;;;4865359;29;20055;-84
2021/12/17 13:41:56;;;;;;;11.00;4.20;;;8.90;99.90;;;;;;4865207;29;20053;-84
2021/12/17 13:44:37;;;;;;;10.35;3.97;;;8.90;99.90;;;;;;4865610;29;20088;-86
2021/12/17 13:47:13;;;;;;;13.00;3.95;;;8.90;99.90;;;;;;4865426;29;20053;-84
2021/12/17 13:49:41;;;;;;;13.82;4.03;;;9.00;99.90;;;;;;4865266;29;20061;-84
2021/12/17 13:52:09;;;;;;;8.60;4.20;;;9.00;99.90;;;;;;4865361;29;20053;-84
2021/12/17 13:54:35;;;;;;;9.20;3.70;;;9.00;99.90;;;;;;4865182;29;20505;-83
2021/12/17 13:57:03;;;;;;;12.57;3.85;;;9.00;99.90;;;;;;4865278;29;20139;-83
2021/12/17 13:59:34;;;;;;;10.45;3.95;;;9.00;99.90;;;;;;4865040;29;20504;-83
2021/12/17 14:02:10;;;;;;;15.20;5.45;;;9.00;99.90;;;;;;4865202;29;20532;-83
2021/12/17 14:04:36;;;;;;;11.45;3.75;;;9.00;99.90;;;;;;4865255;29;20049;-83
2021/12/17 14:07:05;;;;;;;8.43;3.90;;;8.90;99.90;;;;;;4864064;29;20080;-88
2021/12/17 14:09:34;;;;;;;8.93;4.15;;;8.90;99.90;;;;;;4864738;29;20053;-87
2021/12/17 14:12:27;;;;;;;9.63;4.05;;;8.90;99.90;;;;;;4864676;29;20081;-88
2021/12/17 14:15:01;;;;;;;10.43;4.20;;;8.90;99.90;;;;;;4864906;29;20105;-88
2021/12/17 14:17:46;;;;;;;15.70;4.15;;;9.00;99.90;;;;;;4864905;29;20057;-91
2021/12/17 14:20:16;;;;;;;17.67;4.97;;;8.90;99.90;;;;;;4865119;29;20144;-87
2021/12/17 14:22:44;;;;;;;11.90;4.13;;;8.90;99.90;;;;;;4864899;29;20511;-87
2021/12/17 14:25:33;;;;;;;15.13;4.68;;;8.90;99.90;;;;;;4864889;29;20053;-89
2021/12/17 14:28:14;;;;;;;13.82;5.03;;;8.90;99.90;;;;;;4863901;29;20065;-89
2021/12/17 14:30:42;;;;;;;12.70;5.63;;;8.90;99.90;;;;;;4881670;29;20045;-89
2021/12/17 14:33:17;;;;;;;17.02;5.43;;;8.90;99.90;;;;;;4864653;29;20053;-87
2021/12/17 14:35:51;;;;;;;13.40;5.57;;;8.90;99.90;;;;;;4864870;29;20048;-88
2021/12/17 14:38:20;;;;;;;19.65;6.72;;;8.80;99.90;;;;;;4864895;29;20041;-87
2021/12/17 14:40:57;;;;;;;14.38;6.97;;;8.80;99.90;;;;;;4864505;29;20053;-88
2021/12/17 14:43:33;;;;;;;21.85;8.77;;;8.80;99.90;;;;;;4864236;29;20063;-89
2021/12/17 14:46:23;;;;;;;17.42;7.22;;;8.80;99.90;;;;;;4864455;29;20382;-87
2021/12/17 14:57:11;;;;;;;18.38;8.38;;;8.80;99.90;;;;;;4864361;29;20446;-88
2021/12/17 14:59:18;;;;;;;22.60;7.70;;;8.80;99.90;;;;;;4864291;29;20080;-82
2021/12/17 15:05:44;;;;;;;15.75;7.78;;;8.80;99.90;;;;;;4863260;29;20117;-82
2021/12/17 15:08:10;;;;;;;20.67;7.65;;;8.80;99.90;;;;;;4863352;29;20131;-82
2021/12/17 15:10:36;;;;;;;16.63;6.97;;;8.80;99.90;;;;;;4863698;29;20052;-82
2021/12/17 15:13:02;;;;;;;15.90;6.10;;;8.70;99.90;;;;;;4863654;29;20512;-82
2021/12/17 15:15:31;;;;;;;19.27;6.40;;;8.70;99.90;;;;;;4863856;29;20041;-82
2021/12/17 15:17:58;;;;;;;16.30;5.75;;;8.80;99.90;;;;;;4863532;29;20057;-82
2021/12/17 15:20:34;;;;;;;15.20;6.25;;;8.70;99.90;;;;;;4863105;29;20067;-82
2021/12/17 15:23:02;;;;;;;12.68;5.28;;;8.70;99.90;;;;;;4863548;29;20477;-82
2021/12/17 15:25:28;;;;;;;16.77;6.03;;;8.70;99.90;;;;;;4863619;29;20057;-83
2021/12/17 15:27:55;;;;;;;19.98;5.95;;;8.60;99.90;;;;;;4863883;29;20052;-82
2021/12/17 15:30:25;;;;;;;12.73;4.63;;;8.70;99.90;;;;;;4863918;29;20041;-83
2021/12/17 15:32:51;;;;;;;16.63;6.45;;;8.60;99.90;;;;;;4864065;29;20494;-83
2021/12/17 15:35:19;;;;;;;14.57;5.88;;;8.60;99.90;;;;;;4863873;29;20065;-83
2021/12/17 15:37:46;;;;;;;13.32;6.40;;;8.60;99.90;;;;;;4863893;29;20064;-83
2021/12/17 15:40:13;;;;;;;12.48;6.53;;;8.60;99.90;;;;;;4863648;29;20093;-83
2021/12/17 15:42:39;;;;;;;13.07;5.53;;;8.60;99.90;;;;;;4863540;29;20531;-83
2021/12/17 15:45:06;;;;;;;14.80;5.57;;;8.60;99.90;;;;;;4880313;29;20100;-83
2021/12/17 15:47:32;;;;;;;16.67;6.55;;;8.60;99.90;;;;;;4863832;29;20048;-83
2021/12/17 15:49:58;;;;;;;13.73;5.78;;;8.60;99.90;;;;;;4863676;29;20557;-83
2021/12/17 15:52:24;;;;;;;15.90;6.53;;;8.70;99.90;;;;;;4880132;29;20501;-83
2021/12/17 15:54:50;;;;;;;18.50;5.70;;;8.60;99.90;;;;;;4863723;29;20049;-83
2021/12/17 15:57:16;;;;;;;16.40;6.22;;;8.60;99.90;;;;;;4863468;29;20501;-83
2021/12/17 15:59:43;;;;;;;16.92;6.93;;;8.60;99.90;;;;;;4863722;29;20041;-83
2021/12/17 16:02:09;;;;;;;16.58;6.22;;;8.60;99.90;;;;;;4863140;29;20060;-83
2021/12/17 16:04:42;;;;;;;15.88;4.82;;;8.60;99.90;;;;;;4863331;29;20049;-83
2021/12/17 16:07:09;;;;;;;15.75;5.38;;;8.60;99.90;;;;;;4860101;29;20061;-83